Terminal Aerodrome Forecast
Issued by NWS Central Illinois

Home | Current Version | Previous Version | Text Only | Print | Product List | Glossary On
Versions: 1 2 3 4 5 6 7 8 9 10 11 12 13 14 15 16 17
000
FTUS43 KILX 211127
TAFPIA
TAF
KPIA 211127Z 2112/2212 24009KT P6SM SKC
     FM211400 28017G25KT P6SM SKC
     FM211700 27022G35KT P6SM SCT120
     FM220000 27011KT P6SM SCT080
     FM220400 29008KT P6SM VCSH BKN050=

USA.gov is the U.S. government's official web portal to all federal, state and local government web resources and services.